sensor_id;sensor_type;location;lat;lon;timestamp;temperature;humidity
77052;SHT30;65980;44.898;8.602;2023-03-31T00:00:58;10.67;75.27
77052;SHT30;65980;44.898;8.602;2023-03-31T00:04:03;10.79;74.95
77052;SHT30;65980;44.898;8.602;2023-03-31T00:07:07;10.87;75.24
77052;SHT30;65980;44.898;8.602;2023-03-31T00:10:12;11.04;74.07
77052;SHT30;65980;44.898;8.602;2023-03-31T00:13:17;11.06;73.76
77052;SHT30;65980;44.898;8.602;2023-03-31T00:16:21;11.24;73.11
77052;SHT30;65980;44.898;8.602;2023-03-31T00:19:25;11.29;72.97
77052;SHT30;65980;44.898;8.602;2023-03-31T00:22:31;11.29;72.76
77052;SHT30;65980;44.898;8.602;2023-03-31T00:25:38;11.12;73.17
77052;SHT30;65980;44.898;8.602;2023-03-31T00:28:43;11.10;73.72
77052;SHT30;65980;44.898;8.602;2023-03-31T00:31:47;11.22;72.86
77052;SHT30;65980;44.898;8.602;2023-03-31T00:34:52;10.99;74.22
77052;SHT30;65980;44.898;8.602;2023-03-31T00:37:56;11.11;72.81
77052;SHT30;65980;44.898;8.602;2023-03-31T00:41:01;10.73;74.49
77052;SHT30;65980;44.898;8.602;2023-03-31T00:44:08;10.20;76.01
77052;SHT30;65980;44.898;8.602;2023-03-31T00:47:14;9.76;77.56
77052;SHT30;65980;44.898;8.602;2023-03-31T00:50:21;9.60;78.28
77052;SHT30;65980;44.898;8.602;2023-03-31T00:53:26;9.36;78.96
77052;SHT30;65980;44.898;8.602;2023-03-31T00:56:34;9.07;79.87
77052;SHT30;65980;44.898;8.602;2023-03-31T01:00:00;9.22;79.26
77052;SHT30;65980;44.898;8.602;2023-03-31T01:03:13;9.48;78.50
77052;SHT30;65980;44.898;8.602;2023-03-31T01:06:18;9.55;77.18
77052;SHT30;65980;44.898;8.602;2023-03-31T01:09:23;9.62;77.79
77052;SHT30;65980;44.898;8.602;2023-03-31T01:12:30;9.77;76.67
77052;SHT30;65980;44.898;8.602;2023-03-31T01:15:36;9.67;76.87
77052;SHT30;65980;44.898;8.602;2023-03-31T01:18:40;9.75;76.76
77052;SHT30;65980;44.898;8.602;2023-03-31T01:25:22;9.94;76.86
77052;SHT30;65980;44.898;8.602;2023-03-31T01:48:12;10.75;74.50
77052;SHT30;65980;44.898;8.602;2023-03-31T01:54:47;10.92;73.98
77052;SHT30;65980;44.898;8.602;2023-03-31T02:01:05;10.93;73.98
77052;SHT30;65980;44.898;8.602;2023-03-31T02:04:16;10.86;73.51
77052;SHT30;65980;44.898;8.602;2023-03-31T02:07:28;10.73;73.28
77052;SHT30;65980;44.898;8.602;2023-03-31T02:10:34;10.65;73.82
77052;SHT30;65980;44.898;8.602;2023-03-31T02:13:39;10.17;75.07
77052;SHT30;65980;44.898;8.602;2023-03-31T02:16:46;10.38;75.12
77052;SHT30;65980;44.898;8.602;2023-03-31T02:19:53;10.46;74.72
77052;SHT30;65980;44.898;8.602;2023-03-31T02:22:59;10.32;74.85
77052;SHT30;65980;44.898;8.602;2023-03-31T02:29:09;10.04;76.55
77052;SHT30;65980;44.898;8.602;2023-03-31T02:35:18;10.50;75.10
77052;SHT30;65980;44.898;8.602;2023-03-31T02:38:23;10.62;75.23
77052;SHT30;65980;44.898;8.602;2023-03-31T02:41:27;10.72;74.64
77052;SHT30;65980;44.898;8.602;2023-03-31T02:44:34;10.80;73.91
77052;SHT30;65980;44.898;8.602;2023-03-31T02:47:38;10.76;74.34
77052;SHT30;65980;44.898;8.602;2023-03-31T03:00:55;10.80;75.89
77052;SHT30;65980;44.898;8.602;2023-03-31T03:13:46;11.31;75.13
77052;SHT30;65980;44.898;8.602;2023-03-31T03:17:06;11.38;74.49
77052;SHT30;65980;44.898;8.602;2023-03-31T03:20:12;11.34;75.09
77052;SHT30;65980;44.898;8.602;2023-03-31T03:23:16;11.35;74.98
77052;SHT30;65980;44.898;8.602;2023-03-31T03:26:20;11.34;75.41
77052;SHT30;65980;44.898;8.602;2023-03-31T03:29:26;11.55;73.94
77052;SHT30;65980;44.898;8.602;2023-03-31T03:32:33;11.51;75.14
77052;SHT30;65980;44.898;8.602;2023-03-31T03:35:37;11.46;75.01
77052;SHT30;65980;44.898;8.602;2023-03-31T03:38:42;11.59;74.52
77052;SHT30;65980;44.898;8.602;2023-03-31T03:41:47;11.55;74.27
77052;SHT30;65980;44.898;8.602;2023-03-31T03:44:51;11.39;74.71
77052;SHT30;65980;44.898;8.602;2023-03-31T03:47:55;11.54;73.66
77052;SHT30;65980;44.898;8.602;2023-03-31T03:51:00;11.52;73.40
77052;SHT30;65980;44.898;8.602;2023-03-31T03:54:05;11.10;74.86
77052;SHT30;65980;44.898;8.602;2023-03-31T03:57:09;11.34;74.43
77052;SHT30;65980;44.898;8.602;2023-03-31T04:00:13;11.51;73.43
77052;SHT30;65980;44.898;8.602;2023-03-31T04:03:19;11.45;73.16
77052;SHT30;65980;44.898;8.602;2023-03-31T04:06:23;11.07;73.84
77052;SHT30;65980;44.898;8.602;2023-03-31T04:09:27;11.06;74.49
77052;SHT30;65980;44.898;8.602;2023-03-31T04:12:32;10.97;74.77
77052;SHT30;65980;44.898;8.602;2023-03-31T04:15:37;10.84;75.38
77052;SHT30;65980;44.898;8.602;2023-03-31T04:18:41;10.97;75.02
77052;SHT30;65980;44.898;8.602;2023-03-31T04:21:48;11.04;75.03
77052;SHT30;65980;44.898;8.602;2023-03-31T04:24:53;10.92;75.51
77052;SHT30;65980;44.898;8.602;2023-03-31T04:28:01;10.89;75.80
77052;SHT30;65980;44.898;8.602;2023-03-31T04:31:05;10.69;76.71
77052;SHT30;65980;44.898;8.602;2023-03-31T04:34:10;10.15;79.16
77052;SHT30;65980;44.898;8.602;2023-03-31T04:37:16;9.14;79.78
77052;SHT30;65980;44.898;8.602;2023-03-31T04:40:21;8.96;80.57
77052;SHT30;65980;44.898;8.602;2023-03-31T04:43:29;8.84;80.93
77052;SHT30;65980;44.898;8.602;2023-03-31T04:46:33;8.94;81.08
77052;SHT30;65980;44.898;8.602;2023-03-31T04:49:38;8.91;81.29
77052;SHT30;65980;44.898;8.602;2023-03-31T04:52:42;9.07;80.59
77052;SHT30;65980;44.898;8.602;2023-03-31T04:55:48;9.27;79.85
77052;SHT30;65980;44.898;8.602;2023-03-31T04:58:52;9.43;79.85
77052;SHT30;65980;44.898;8.602;2023-03-31T05:01:57;9.45;79.78
77052;SHT30;65980;44.898;8.602;2023-03-31T05:05:01;9.38;80.10
77052;SHT30;65980;44.898;8.602;2023-03-31T05:08:05;9.65;79.15
77052;SHT30;65980;44.898;8.602;2023-03-31T05:11:10;9.75;78.02
77052;SHT30;65980;44.898;8.602;2023-03-31T05:14:15;9.95;77.50
77052;SHT30;65980;44.898;8.602;2023-03-31T05:17:19;9.93;77.74
77052;SHT30;65980;44.898;8.602;2023-03-31T05:20:25;9.90;77.56
77052;SHT30;65980;44.898;8.602;2023-03-31T05:23:28;9.94;77.40
77052;SHT30;65980;44.898;8.602;2023-03-31T05:26:33;9.94;78.01
77052;SHT30;65980;44.898;8.602;2023-03-31T05:29:37;10.05;77.77
77052;SHT30;65980;44.898;8.602;2023-03-31T05:32:41;10.17;77.62
77052;SHT30;65980;44.898;8.602;2023-03-31T05:35:44;10.42;76.29
77052;SHT30;65980;44.898;8.602;2023-03-31T05:38:49;10.25;77.16
77052;SHT30;65980;44.898;8.602;2023-03-31T05:41:55;10.59;76.02
77052;SHT30;65980;44.898;8.602;2023-03-31T05:44:59;10.41;76.62
77052;SHT30;65980;44.898;8.602;2023-03-31T05:48:04;10.44;76.88
77052;SHT30;65980;44.898;8.602;2023-03-31T05:51:11;10.69;76.06
77052;SHT30;65980;44.898;8.602;2023-03-31T05:54:15;11.07;75.44
77052;SHT30;65980;44.898;8.602;2023-03-31T05:57:19;11.17;74.86
77052;SHT30;65980;44.898;8.602;2023-03-31T06:00:23;11.20;75.01
77052;SHT30;65980;44.898;8.602;2023-03-31T06:03:27;11.49;74.04
77052;SHT30;65980;44.898;8.602;2023-03-31T06:06:31;11.58;73.74
77052;SHT30;65980;44.898;8.602;2023-03-31T06:09:36;11.72;73.25
77052;SHT30;65980;44.898;8.602;2023-03-31T06:12:43;11.76;73.17
77052;SHT30;65980;44.898;8.602;2023-03-31T06:15:56;11.49;74.63
77052;SHT30;65980;44.898;8.602;2023-03-31T06:19:06;11.75;74.57
77052;SHT30;65980;44.898;8.602;2023-03-31T06:29:54;12.17;73.30
77052;SHT30;65980;44.898;8.602;2023-03-31T06:36:56;11.36;75.24
77052;SHT30;65980;44.898;8.602;2023-03-31T06:40:32;10.96;75.63
77052;SHT30;65980;44.898;8.602;2023-03-31T06:44:37;11.18;76.08
77052;SHT30;65980;44.898;8.602;2023-03-31T06:48:17;11.58;74.82
77052;SHT30;65980;44.898;8.602;2023-03-31T06:59:15;12.21;72.54
77052;SHT30;65980;44.898;8.602;2023-03-31T07:02:20;12.57;71.98
77052;SHT30;65980;44.898;8.602;2023-03-31T07:05:51;12.79;71.19
77052;SHT30;65980;44.898;8.602;2023-03-31T07:09:07;13.10;70.09
77052;SHT30;65980;44.898;8.602;2023-03-31T07:12:24;12.82;70.39
77052;SHT30;65980;44.898;8.602;2023-03-31T07:15:35;12.53;70.81
77052;SHT30;65980;44.898;8.602;2023-03-31T07:18:49;12.50;70.80
77052;SHT30;65980;44.898;8.602;2023-03-31T07:22:38;13.06;70.97
77052;SHT30;65980;44.898;8.602;2023-03-31T07:26:42;13.42;70.19
77052;SHT30;65980;44.898;8.602;2023-03-31T07:29:47;13.61;69.22
77052;SHT30;65980;44.898;8.602;2023-03-31T07:33:00;13.66;69.00
77052;SHT30;65980;44.898;8.602;2023-03-31T07:36:21;13.80;69.23
77052;SHT30;65980;44.898;8.602;2023-03-31T07:39:38;13.56;68.37
77052;SHT30;65980;44.898;8.602;2023-03-31T07:42:45;13.62;67.44
77052;SHT30;65980;44.898;8.602;2023-03-31T07:46:19;13.35;67.23
77052;SHT30;65980;44.898;8.602;2023-03-31T08:04:55;13.86;68.61
77052;SHT30;65980;44.898;8.602;2023-03-31T08:08:31;13.80;68.00
77052;SHT30;65980;44.898;8.602;2023-03-31T08:11:35;13.86;68.71
77052;SHT30;65980;44.898;8.602;2023-03-31T08:14:42;13.87;69.17
77052;SHT30;65980;44.898;8.602;2023-03-31T08:17:46;14.03;68.53
77052;SHT30;65980;44.898;8.602;2023-03-31T08:24:44;14.46;66.11
77052;SHT30;65980;44.898;8.602;2023-03-31T08:27:53;14.54;66.04
77052;SHT30;65980;44.898;8.602;2023-03-31T08:31:09;14.65;65.32
77052;SHT30;65980;44.898;8.602;2023-03-31T08:38:17;14.73;65.23
77052;SHT30;65980;44.898;8.602;2023-03-31T08:41:35;15.12;64.26
77052;SHT30;65980;44.898;8.602;2023-03-31T08:51:35;15.85;61.10
77052;SHT30;65980;44.898;8.602;2023-03-31T08:55:27;16.14;59.08
77052;SHT30;65980;44.898;8.602;2023-03-31T08:59:00;16.42;60.38
77052;SHT30;65980;44.898;8.602;2023-03-31T09:02:42;16.70;56.96
77052;SHT30;65980;44.898;8.602;2023-03-31T09:05:57;17.16;55.49
77052;SHT30;65980;44.898;8.602;2023-03-31T09:09:13;17.21;56.54
77052;SHT30;65980;44.898;8.602;2023-03-31T09:19:36;18.31;52.73
77052;SHT30;65980;44.898;8.602;2023-03-31T09:30:48;18.59;49.65
77052;SHT30;65980;44.898;8.602;2023-03-31T09:34:09;19.35;47.80
77052;SHT30;65980;44.898;8.602;2023-03-31T09:44:54;21.59;43.90
77052;SHT30;65980;44.898;8.602;2023-03-31T09:58:55;20.65;44.33
77052;SHT30;65980;44.898;8.602;2023-03-31T10:02:03;18.93;46.90
77052;SHT30;65980;44.898;8.602;2023-03-31T10:05:36;19.41;47.00
77052;SHT30;65980;44.898;8.602;2023-03-31T10:08:49;18.68;47.95
77052;SHT30;65980;44.898;8.602;2023-03-31T10:12:01;18.61;49.14
77052;SHT30;65980;44.898;8.602;2023-03-31T10:15:14;18.55;48.86
77052;SHT30;65980;44.898;8.602;2023-03-31T10:18:31;18.47;49.98
77052;SHT30;65980;44.898;8.602;2023-03-31T10:21:44;18.34;49.69
77052;SHT30;65980;44.898;8.602;2023-03-31T10:28:50;18.51;50.08
77052;SHT30;65980;44.898;8.602;2023-03-31T10:32:02;18.44;50.45
77052;SHT30;65980;44.898;8.602;2023-03-31T10:35:18;18.53;50.41
77052;SHT30;65980;44.898;8.602;2023-03-31T10:38:30;18.48;51.25
77052;SHT30;65980;44.898;8.602;2023-03-31T10:41:38;18.44;51.64
77052;SHT30;65980;44.898;8.602;2023-03-31T10:44:49;18.51;51.39
77052;SHT30;65980;44.898;8.602;2023-03-31T10:48:08;18.52;52.70
77052;SHT30;65980;44.898;8.602;2023-03-31T10:51:28;18.34;52.61
77052;SHT30;65980;44.898;8.602;2023-03-31T10:54:59;18.14;52.87
77052;SHT30;65980;44.898;8.602;2023-03-31T10:58:15;18.03;53.72
77052;SHT30;65980;44.898;8.602;2023-03-31T11:01:53;18.30;52.99
77052;SHT30;65980;44.898;8.602;2023-03-31T11:08:28;18.66;52.63
77052;SHT30;65980;44.898;8.602;2023-03-31T11:11:56;18.61;53.23
77052;SHT30;65980;44.898;8.602;2023-03-31T11:15:11;18.75;52.54
77052;SHT30;65980;44.898;8.602;2023-03-31T11:22:11;19.48;51.80
77052;SHT30;65980;44.898;8.602;2023-03-31T11:25:33;19.32;51.28
77052;SHT30;65980;44.898;8.602;2023-03-31T11:42:02;18.25;57.28
77052;SHT30;65980;44.898;8.602;2023-03-31T11:51:50;18.90;53.96
77052;SHT30;65980;44.898;8.602;2023-03-31T11:55:34;19.76;52.11
77052;SHT30;65980;44.898;8.602;2023-03-31T11:58:51;19.57;50.70
77052;SHT30;65980;44.898;8.602;2023-03-31T12:02:18;20.31;48.68
77052;SHT30;65980;44.898;8.602;2023-03-31T12:05:23;20.61;48.06
77052;SHT30;65980;44.898;8.602;2023-03-31T12:08:38;19.82;50.07
77052;SHT30;65980;44.898;8.602;2023-03-31T12:11:54;19.31;50.94
77052;SHT30;65980;44.898;8.602;2023-03-31T12:18:13;18.89;51.83
77052;SHT30;65980;44.898;8.602;2023-03-31T12:21:22;19.35;51.46
77052;SHT30;65980;44.898;8.602;2023-03-31T12:24:27;19.45;50.97
77052;SHT30;65980;44.898;8.602;2023-03-31T12:27:44;19.44;50.72
77052;SHT30;65980;44.898;8.602;2023-03-31T12:30:53;19.11;51.76
77052;SHT30;65980;44.898;8.602;2023-03-31T12:33:59;19.10;52.30
77052;SHT30;65980;44.898;8.602;2023-03-31T12:43:42;18.93;52.98
77052;SHT30;65980;44.898;8.602;2023-03-31T12:50:08;18.75;53.51
77052;SHT30;65980;44.898;8.602;2023-03-31T12:53:19;18.62;54.62
77052;SHT30;65980;44.898;8.602;2023-03-31T13:14:51;18.69;54.53
77052;SHT30;65980;44.898;8.602;2023-03-31T13:18:12;18.87;54.15
77052;SHT30;65980;44.898;8.602;2023-03-31T14:02:32;18.65;56.39
77052;SHT30;65980;44.898;8.602;2023-03-31T14:09:13;18.51;56.07
77052;SHT30;65980;44.898;8.602;2023-03-31T14:13:23;18.13;56.80
77052;SHT30;65980;44.898;8.602;2023-03-31T14:16:07;18.90;55.99
77052;SHT30;65980;44.898;8.602;2023-03-31T14:37:45;18.49;57.93
77052;SHT30;65980;44.898;8.602;2023-03-31T14:45:01;19.04;56.48
77052;SHT30;65980;44.898;8.602;2023-03-31T14:48:20;19.02;56.34
77052;SHT30;65980;44.898;8.602;2023-03-31T14:52:14;18.92;56.34
77052;SHT30;65980;44.898;8.602;2023-03-31T14:58:51;18.89;56.33
77052;SHT30;65980;44.898;8.602;2023-03-31T15:02:05;19.04;56.29
77052;SHT30;65980;44.898;8.602;2023-03-31T15:08:27;18.77;56.67
77052;SHT30;65980;44.898;8.602;2023-03-31T15:11:55;18.63;57.40
77052;SHT30;65980;44.898;8.602;2023-03-31T15:15:04;18.47;57.69
77052;SHT30;65980;44.898;8.602;2023-03-31T15:18:11;18.31;58.24
77052;SHT30;65980;44.898;8.602;2023-03-31T15:21:19;18.44;57.60
77052;SHT30;65980;44.898;8.602;2023-03-31T15:24:24;18.27;58.07
77052;SHT30;65980;44.898;8.602;2023-03-31T15:27:36;18.72;57.37
77052;SHT30;65980;44.898;8.602;2023-03-31T15:30:42;18.51;57.69
77052;SHT30;65980;44.898;8.602;2023-03-31T15:33:49;18.59;57.37
77052;SHT30;65980;44.898;8.602;2023-03-31T15:37:05;18.80;56.95
77052;SHT30;65980;44.898;8.602;2023-03-31T15:40:38;18.75;57.00
77052;SHT30;65980;44.898;8.602;2023-03-31T15:43:49;18.61;58.14
77052;SHT30;65980;44.898;8.602;2023-03-31T15:50:16;18.06;58.26
77052;SHT30;65980;44.898;8.602;2023-03-31T15:53:28;18.00;58.89
77052;SHT30;65980;44.898;8.602;2023-03-31T15:56:42;18.17;58.65
77052;SHT30;65980;44.898;8.602;2023-03-31T15:59:48;18.01;59.23
77052;SHT30;65980;44.898;8.602;2023-03-31T16:02:53;18.01;59.74
77052;SHT30;65980;44.898;8.602;2023-03-31T16:05:57;17.63;60.50
77052;SHT30;65980;44.898;8.602;2023-03-31T16:09:05;17.69;60.05
77052;SHT30;65980;44.898;8.602;2023-03-31T16:15:35;17.59;60.27
77052;SHT30;65980;44.898;8.602;2023-03-31T16:18:41;17.65;60.49
77052;SHT30;65980;44.898;8.602;2023-03-31T16:21:47;17.45;60.69
77052;SHT30;65980;44.898;8.602;2023-03-31T16:24:55;17.49;60.77
77052;SHT30;65980;44.898;8.602;2023-03-31T16:28:00;17.86;59.72
77052;SHT30;65980;44.898;8.602;2023-03-31T16:31:04;17.80;60.20
77052;SHT30;65980;44.898;8.602;2023-03-31T16:34:29;18.10;59.62
77052;SHT30;65980;44.898;8.602;2023-03-31T16:37:34;18.47;58.57
77052;SHT30;65980;44.898;8.602;2023-03-31T16:40:40;19.14;56.48
77052;SHT30;65980;44.898;8.602;2023-03-31T16:43:45;19.85;54.31
77052;SHT30;65980;44.898;8.602;2023-03-31T16:46:55;20.35;53.22
77052;SHT30;65980;44.898;8.602;2023-03-31T16:49:59;21.42;50.39
77052;SHT30;65980;44.898;8.602;2023-03-31T16:53:08;21.04;51.38
77052;SHT30;65980;44.898;8.602;2023-03-31T16:56:13;20.56;52.35
77052;SHT30;65980;44.898;8.602;2023-03-31T16:59:27;19.47;54.73
77052;SHT30;65980;44.898;8.602;2023-03-31T17:02:31;20.37;53.23
77052;SHT30;65980;44.898;8.602;2023-03-31T17:05:42;21.21;51.11
77052;SHT30;65980;44.898;8.602;2023-03-31T17:09:05;21.86;49.42
77052;SHT30;65980;44.898;8.602;2023-03-31T17:12:10;21.13;51.07
77052;SHT30;65980;44.898;8.602;2023-03-31T17:15:19;19.23;55.89
77052;SHT30;65980;44.898;8.602;2023-03-31T17:18:23;18.42;58.15
77052;SHT30;65980;44.898;8.602;2023-03-31T17:21:30;17.48;61.18
77052;SHT30;65980;44.898;8.602;2023-03-31T17:24:34;17.35;61.82
77052;SHT30;65980;44.898;8.602;2023-03-31T17:27:40;17.03;62.82
77052;SHT30;65980;44.898;8.602;2023-03-31T17:30:54;16.80;63.65
77052;SHT30;65980;44.898;8.602;2023-03-31T17:34:07;16.35;65.24
77052;SHT30;65980;44.898;8.602;2023-03-31T17:37:18;16.06;66.21
77052;SHT30;65980;44.898;8.602;2023-03-31T17:40:24;15.85;66.97
77052;SHT30;65980;44.898;8.602;2023-03-31T17:43:44;15.52;67.75
77052;SHT30;65980;44.898;8.602;2023-03-31T17:46:54;15.61;67.88
77052;SHT30;65980;44.898;8.602;2023-03-31T17:50:01;15.83;67.08
77052;SHT30;65980;44.898;8.602;2023-03-31T17:53:05;15.61;67.81
77052;SHT30;65980;44.898;8.602;2023-03-31T17:56:14;15.78;67.20
77052;SHT30;65980;44.898;8.602;2023-03-31T17:59:19;15.78;67.32
77052;SHT30;65980;44.898;8.602;2023-03-31T18:02:26;15.85;67.02
77052;SHT30;65980;44.898;8.602;2023-03-31T18:05:34;15.41;68.42
77052;SHT30;65980;44.898;8.602;2023-03-31T18:08:40;15.55;67.97
77052;SHT30;65980;44.898;8.602;2023-03-31T18:11:48;15.70;67.50
77052;SHT30;65980;44.898;8.602;2023-03-31T18:14:56;15.49;68.03
77052;SHT30;65980;44.898;8.602;2023-03-31T18:18:00;15.45;68.18
77052;SHT30;65980;44.898;8.602;2023-03-31T18:21:05;15.32;68.66
77052;SHT30;65980;44.898;8.602;2023-03-31T18:24:10;15.08;69.34
77052;SHT30;65980;44.898;8.602;2023-03-31T18:27:17;14.77;70.59
77052;SHT30;65980;44.898;8.602;2023-03-31T18:30:41;14.66;70.95
77052;SHT30;65980;44.898;8.602;2023-03-31T18:33:50;14.65;71.10
77052;SHT30;65980;44.898;8.602;2023-03-31T18:36:58;14.54;71.59
77052;SHT30;65980;44.898;8.602;2023-03-31T18:40:05;14.51;71.59
77052;SHT30;65980;44.898;8.602;2023-03-31T18:43:10;14.55;71.57
77052;SHT30;65980;44.898;8.602;2023-03-31T18:46:14;14.59;71.60
77052;SHT30;65980;44.898;8.602;2023-03-31T18:52:48;14.63;70.95
77052;SHT30;65980;44.898;8.602;2023-03-31T18:55:55;14.75;70.62
77052;SHT30;65980;44.898;8.602;2023-03-31T18:59:00;14.87;70.36
77052;SHT30;65980;44.898;8.602;2023-03-31T19:02:08;14.77;70.62
77052;SHT30;65980;44.898;8.602;2023-03-31T19:05:13;14.52;70.92
77052;SHT30;65980;44.898;8.602;2023-03-31T19:08:18;14.52;71.02
77052;SHT30;65980;44.898;8.602;2023-03-31T19:11:22;14.28;72.24
77052;SHT30;65980;44.898;8.602;2023-03-31T19:14:28;14.27;72.43
77052;SHT30;65980;44.898;8.602;2023-03-31T19:17:33;14.22;72.48
77052;SHT30;65980;44.898;8.602;2023-03-31T19:20:37;14.24;71.74
77052;SHT30;65980;44.898;8.602;2023-03-31T19:23:42;14.31;71.71
77052;SHT30;65980;44.898;8.602;2023-03-31T19:26:46;14.54;70.78
77052;SHT30;65980;44.898;8.602;2023-03-31T19:29:51;14.55;70.76
77052;SHT30;65980;44.898;8.602;2023-03-31T19:32:56;14.42;71.09
77052;SHT30;65980;44.898;8.602;2023-03-31T19:36:14;14.29;71.67
77052;SHT30;65980;44.898;8.602;2023-03-31T19:39:20;14.34;71.35
77052;SHT30;65980;44.898;8.602;2023-03-31T19:42:31;14.09;72.53
77052;SHT30;65980;44.898;8.602;2023-03-31T19:49:17;14.20;71.85
77052;SHT30;65980;44.898;8.602;2023-03-31T19:52:45;14.17;71.90
77052;SHT30;65980;44.898;8.602;2023-03-31T19:59:36;13.90;72.66
77052;SHT30;65980;44.898;8.602;2023-03-31T20:02:42;13.80;73.12
77052;SHT30;65980;44.898;8.602;2023-03-31T20:05:48;13.39;74.78
77052;SHT30;65980;44.898;8.602;2023-03-31T20:09:00;13.42;74.77
77052;SHT30;65980;44.898;8.602;2023-03-31T20:12:05;13.54;74.25
77052;SHT30;65980;44.898;8.602;2023-03-31T20:15:10;13.77;73.07
77052;SHT30;65980;44.898;8.602;2023-03-31T20:18:15;13.62;73.63
77052;SHT30;65980;44.898;8.602;2023-03-31T20:21:20;13.61;73.28
77052;SHT30;65980;44.898;8.602;2023-03-31T20:24:28;13.52;73.63
77052;SHT30;65980;44.898;8.602;2023-03-31T20:27:32;13.15;75.17
77052;SHT30;65980;44.898;8.602;2023-03-31T20:30:36;13.15;75.10
77052;SHT30;65980;44.898;8.602;2023-03-31T20:33:49;13.34;74.31
77052;SHT30;65980;44.898;8.602;2023-03-31T20:36:54;13.37;74.00
77052;SHT30;65980;44.898;8.602;2023-03-31T20:39:59;13.27;74.46
77052;SHT30;65980;44.898;8.602;2023-03-31T20:43:03;13.22;74.80
77052;SHT30;65980;44.898;8.602;2023-03-31T20:46:07;13.35;74.57
77052;SHT30;65980;44.898;8.602;2023-03-31T20:49:12;13.37;74.28
77052;SHT30;65980;44.898;8.602;2023-03-31T20:52:17;13.27;74.50
77052;SHT30;65980;44.898;8.602;2023-03-31T20:55:21;13.22;74.51
77052;SHT30;65980;44.898;8.602;2023-03-31T20:58:27;13.18;74.63
77052;SHT30;65980;44.898;8.602;2023-03-31T21:01:31;13.28;74.61
77052;SHT30;65980;44.898;8.602;2023-03-31T21:04:36;13.01;75.29
77052;SHT30;65980;44.898;8.602;2023-03-31T21:07:41;12.90;76.02
77052;SHT30;65980;44.898;8.602;2023-03-31T21:10:45;12.76;76.67
77052;SHT30;65980;44.898;8.602;2023-03-31T21:13:50;12.65;77.17
77052;SHT30;65980;44.898;8.602;2023-03-31T21:16:56;12.48;77.43
77052;SHT30;65980;44.898;8.602;2023-03-31T21:20:02;12.00;79.12
77052;SHT30;65980;44.898;8.602;2023-03-31T21:23:07;11.90;79.19
77052;SHT30;65980;44.898;8.602;2023-03-31T21:26:14;11.93;79.10
77052;SHT30;65980;44.898;8.602;2023-03-31T21:29:18;11.93;79.15
77052;SHT30;65980;44.898;8.602;2023-03-31T21:32:23;11.90;79.37
77052;SHT30;65980;44.898;8.602;2023-03-31T21:35:27;12.00;79.33
77052;SHT30;65980;44.898;8.602;2023-03-31T21:38:33;12.01;78.84
77052;SHT30;65980;44.898;8.602;2023-03-31T21:41:39;11.84;79.31
77052;SHT30;65980;44.898;8.602;2023-03-31T21:44:45;11.65;79.97
77052;SHT30;65980;44.898;8.602;2023-03-31T21:47:49;11.51;80.13
77052;SHT30;65980;44.898;8.602;2023-03-31T21:50:57;11.42;80.48
77052;SHT30;65980;44.898;8.602;2023-03-31T21:54:02;11.42;80.52
77052;SHT30;65980;44.898;8.602;2023-03-31T21:57:07;11.36;80.14
77052;SHT30;65980;44.898;8.602;2023-03-31T22:00:11;11.31;80.52
77052;SHT30;65980;44.898;8.602;2023-03-31T22:03:20;11.38;79.86
77052;SHT30;65980;44.898;8.602;2023-03-31T22:06:27;11.11;80.81
77052;SHT30;65980;44.898;8.602;2023-03-31T22:09:32;11.15;81.17
77052;SHT30;65980;44.898;8.602;2023-03-31T22:12:35;11.20;80.58
77052;SHT30;65980;44.898;8.602;2023-03-31T22:15:42;11.07;81.05
77052;SHT30;65980;44.898;8.602;2023-03-31T22:18:45;11.27;80.12
77052;SHT30;65980;44.898;8.602;2023-03-31T22:21:50;11.20;80.07
77052;SHT30;65980;44.898;8.602;2023-03-31T22:24:57;11.25;79.34
77052;SHT30;65980;44.898;8.602;2023-03-31T22:28:03;11.36;78.99
77052;SHT30;65980;44.898;8.602;2023-03-31T22:31:11;11.15;80.47
77052;SHT30;65980;44.898;8.602;2023-03-31T22:34:16;11.14;80.20
77052;SHT30;65980;44.898;8.602;2023-03-31T22:37:22;11.06;80.88
77052;SHT30;65980;44.898;8.602;2023-03-31T22:40:32;10.94;81.46
77052;SHT30;65980;44.898;8.602;2023-03-31T22:43:36;10.84;81.73
77052;SHT30;65980;44.898;8.602;2023-03-31T22:46:41;10.69;82.48
77052;SHT30;65980;44.898;8.602;2023-03-31T22:49:45;10.70;82.62
77052;SHT30;65980;44.898;8.602;2023-03-31T22:52:50;10.77;82.33
77052;SHT30;65980;44.898;8.602;2023-03-31T22:55:55;10.75;82.53
77052;SHT30;65980;44.898;8.602;2023-03-31T22:59:00;10.76;82.72
77052;SHT30;65980;44.898;8.602;2023-03-31T23:02:08;10.84;82.50
77052;SHT30;65980;44.898;8.602;2023-03-31T23:05:15;10.84;82.19
77052;SHT30;65980;44.898;8.602;2023-03-31T23:08:22;10.83;81.97
77052;SHT30;65980;44.898;8.602;2023-03-31T23:11:34;10.81;82.56
77052;SHT30;65980;44.898;8.602;2023-03-31T23:14:43;10.73;82.70
77052;SHT30;65980;44.898;8.602;2023-03-31T23:17:52;10.69;82.36
77052;SHT30;65980;44.898;8.602;2023-03-31T23:20:56;10.60;82.85
77052;SHT30;65980;44.898;8.602;2023-03-31T23:24:02;10.49;83.36
77052;SHT30;65980;44.898;8.602;2023-03-31T23:27:06;10.49;83.06
77052;SHT30;65980;44.898;8.602;2023-03-31T23:30:12;10.55;83.61
77052;SHT30;65980;44.898;8.602;2023-03-31T23:33:21;10.69;83.11
77052;SHT30;65980;44.898;8.602;2023-03-31T23:36:27;10.84;82.20
77052;SHT30;65980;44.898;8.602;2023-03-31T23:39:38;10.89;81.44
77052;SHT30;65980;44.898;8.602;2023-03-31T23:42:50;11.04;80.57
77052;SHT30;65980;44.898;8.602;2023-03-31T23:45:54;11.17;78.25
77052;SHT30;65980;44.898;8.602;2023-03-31T23:49:05;11.10;78.03
77052;SHT30;65980;44.898;8.602;2023-03-31T23:52:11;10.72;77.91
77052;SHT30;65980;44.898;8.602;2023-03-31T23:55:19;10.66;78.60
77052;SHT30;65980;44.898;8.602;2023-03-31T23:58:24;10.10;81.94
